createdAt,value
2024-05-09T00:00:55.478Z,46.65
2024-05-09T00:03:46.993Z,46.62
2024-05-09T00:06:17.596Z,46.56
2024-05-09T00:08:48.876Z,46.63
2024-05-09T00:11:20.720Z,46.71
2024-05-09T00:13:54.588Z,46.71
2024-05-09T00:16:25.188Z,46.64
2024-05-09T00:18:56.325Z,46.59
2024-05-09T00:21:26.935Z,46.63
2024-05-09T00:23:58.021Z,46.68
2024-05-09T00:26:28.686Z,46.63
2024-05-09T00:29:02.566Z,46.65
2024-05-09T00:31:33.303Z,46.84
2024-05-09T00:34:04.448Z,46.68
2024-05-09T00:36:35.077Z,46.68
2024-05-09T00:39:06.287Z,46.72
2024-05-09T00:41:36.956Z,46.57
2024-05-09T00:44:11.138Z,46.74
2024-05-09T00:46:41.805Z,46.73
2024-05-09T00:49:12.989Z,46.79
2024-05-09T00:51:43.673Z,46.74
2024-05-09T00:54:14.741Z,46.73
2024-05-09T00:56:45.358Z,46.82
2024-05-09T00:59:19.137Z,46.83
2024-05-09T01:01:49.927Z,46.65
2024-05-09T01:04:21.118Z,46.78
2024-05-09T01:06:51.775Z,46.90
2024-05-09T01:09:22.921Z,46.82
2024-05-09T01:11:53.913Z,46.66
2024-05-09T01:14:27.864Z,46.67
2024-05-09T01:16:58.649Z,46.75
2024-05-09T01:19:31.011Z,46.74
2024-05-09T01:22:01.779Z,46.78
2024-05-09T01:24:35.505Z,46.72
2024-05-09T01:27:06.268Z,46.88
2024-05-09T01:29:37.467Z,46.74
2024-05-09T01:32:08.588Z,46.92
2024-05-09T01:34:39.805Z,46.74
2024-05-09T01:37:10.466Z,46.74
2024-05-09T01:39:44.156Z,46.67
2024-05-09T01:42:16.620Z,46.91
2024-05-09T01:44:47.707Z,46.89
2024-05-09T01:47:18.409Z,46.75
2024-05-09T01:49:49.609Z,46.75
2024-05-09T01:52:22.750Z,46.85
2024-05-09T01:54:56.485Z,46.81
2024-05-09T01:57:27.056Z,46.75
2024-05-09T01:59:59.979Z,46.76
2024-05-09T02:02:30.745Z,46.72
2024-05-09T02:05:02.128Z,46.99
2024-05-09T02:07:33.413Z,46.76
2024-05-09T02:10:13.769Z,46.82
2024-05-09T02:12:47.228Z,46.86
2024-05-09T02:15:18.650Z,46.79
2024-05-09T02:17:49.388Z,46.91
2024-05-09T02:20:30.117Z,46.72
2024-05-09T02:23:07.017Z,46.93
2024-05-09T02:25:41.145Z,46.91
2024-05-09T02:28:11.722Z,46.81
2024-05-09T02:30:42.900Z,46.74
2024-05-09T02:33:14.544Z,47.01
2024-05-09T02:35:46.393Z,46.88
2024-05-09T02:38:14.513Z,46.80
2024-05-09T02:40:47.960Z,46.88
2024-05-09T02:43:16.372Z,46.92
2024-05-09T02:45:46.951Z,47.02
2024-05-09T02:48:15.514Z,46.98
2024-05-09T02:50:46.325Z,46.81
2024-05-09T02:53:15.120Z,47.00
2024-05-09T02:55:48.360Z,46.89
2024-05-09T02:58:16.727Z,47.06
2024-05-09T03:00:47.349Z,46.90
2024-05-09T03:03:16.092Z,47.00
2024-05-09T03:05:48.290Z,46.90
2024-05-09T03:08:16.736Z,46.84
2024-05-09T03:10:49.937Z,46.95
2024-05-09T03:13:18.433Z,46.93
2024-05-09T03:15:49.006Z,46.86
2024-05-09T03:18:17.509Z,46.95
2024-05-09T03:20:48.229Z,46.86
2024-05-09T03:23:16.799Z,46.95
2024-05-09T03:25:50.102Z,47.03
2024-05-09T03:28:18.594Z,47.13
2024-05-09T03:30:49.220Z,47.14
2024-05-09T03:33:19.378Z,47.05
2024-05-09T03:35:51.103Z,47.00
2024-05-09T03:38:22.231Z,47.17
2024-05-09T03:40:55.604Z,46.93
2024-05-09T03:43:26.746Z,47.00
2024-05-09T03:45:57.272Z,46.93
2024-05-09T03:48:25.925Z,47.00
2024-05-09T03:50:56.751Z,47.09
2024-05-09T03:53:25.603Z,47.13
2024-05-09T03:55:59.441Z,47.06
2024-05-09T03:58:30.593Z,47.03
2024-05-09T04:00:58.736Z,46.97
2024-05-09T04:03:30.169Z,47.04
2024-05-09T04:05:58.379Z,47.12
2024-05-09T04:08:29.480Z,47.13
2024-05-09T04:11:00.173Z,47.26
2024-05-09T04:13:31.297Z,47.15
2024-05-09T04:15:59.210Z,47.13
2024-05-09T04:18:30.379Z,47.18
2024-05-09T04:20:59.675Z,47.25
2024-05-09T04:23:30.962Z,47.28
2024-05-09T04:26:04.454Z,47.41
2024-05-09T04:28:35.683Z,47.41
2024-05-09T04:31:03.739Z,47.26
2024-05-09T04:33:35.027Z,47.39
2024-05-09T04:36:03.125Z,47.42
2024-05-09T04:38:34.432Z,47.30
2024-05-09T04:41:05.238Z,47.37
2024-05-09T04:43:36.336Z,47.46
2024-05-09T04:46:04.370Z,47.59
2024-05-09T04:48:35.506Z,47.42
2024-05-09T04:51:03.754Z,47.47
2024-05-09T04:53:34.853Z,47.47
2024-05-09T04:56:06.652Z,47.43
2024-05-09T04:58:37.792Z,47.43
2024-05-09T05:01:05.781Z,47.54
2024-05-09T05:03:37.182Z,47.65
2024-05-09T05:06:05.757Z,47.55
2024-05-09T05:08:36.952Z,47.69
2024-05-09T05:11:07.779Z,47.73
2024-05-09T05:13:41.338Z,47.66
2024-05-09T05:16:09.611Z,47.93
2024-05-09T05:18:40.651Z,47.92
2024-05-09T05:21:08.716Z,47.78
2024-05-09T05:23:40.913Z,47.86
2024-05-09T05:26:11.648Z,47.93
2024-05-09T05:28:45.434Z,47.79
2024-05-09T05:31:13.665Z,47.85
2024-05-09T05:33:44.934Z,48.00
2024-05-09T05:36:12.922Z,47.86
2024-05-09T05:38:45.418Z,47.72
2024-05-09T05:41:16.239Z,48.00
2024-05-09T05:43:47.393Z,47.89
2024-05-09T05:46:15.501Z,47.94
2024-05-09T05:48:46.567Z,48.09
2024-05-09T05:51:15.981Z,47.95
2024-05-09T05:53:49.891Z,47.95
2024-05-09T05:56:20.705Z,47.97
2024-05-09T05:58:51.966Z,47.96
2024-05-09T06:03:51.431Z,48.03
2024-05-09T06:06:19.632Z,47.88
2024-05-09T06:08:50.898Z,48.01
2024-05-09T06:11:21.786Z,47.97
2024-05-09T06:13:53.099Z,48.02
2024-05-09T06:16:21.161Z,47.83
2024-05-09T06:18:53.488Z,47.86
2024-05-09T06:21:26.807Z,48.05
2024-05-09T06:23:58.023Z,48.09
2024-05-09T06:26:31.470Z,47.95
2024-05-09T06:29:03.667Z,48.05
2024-05-09T06:31:31.691Z,48.15
2024-05-09T06:34:03.163Z,48.06
2024-05-09T06:36:31.285Z,47.90
2024-05-09T06:39:04.784Z,48.02
2024-05-09T06:41:35.452Z,48.04
2024-05-09T06:44:06.569Z,48.05
2024-05-09T06:46:34.617Z,47.90
2024-05-09T06:49:08.531Z,47.85
2024-05-09T06:51:36.637Z,47.91
2024-05-09T06:54:09.256Z,47.94
2024-05-09T06:56:39.967Z,47.76
2024-05-09T06:59:11.299Z,47.89
2024-05-09T07:01:39.452Z,48.02
2024-05-09T07:04:11.081Z,47.78
2024-05-09T07:06:39.296Z,47.99
2024-05-09T07:09:10.350Z,48.05
2024-05-09T07:11:41.147Z,47.76
2024-05-09T07:14:12.313Z,47.84
2024-05-09T07:16:40.418Z,47.84
2024-05-09T07:19:12.031Z,47.89
2024-05-09T07:21:40.190Z,47.75
2024-05-09T07:24:11.270Z,47.78
2024-05-09T07:26:41.962Z,47.71
2024-05-09T07:29:13.179Z,47.50
2024-05-09T07:31:41.090Z,47.36
2024-05-09T07:34:16.733Z,47.17
2024-05-09T07:36:44.854Z,47.52
2024-05-09T07:39:15.996Z,47.38
2024-05-09T07:41:46.736Z,47.33
2024-05-09T07:44:21.769Z,47.40
2024-05-09T07:47:48.846Z,47.21
2024-05-09T07:53:29.715Z,47.54
2024-05-09T07:55:05.048Z,47.60
2024-05-09T07:57:37.413Z,47.60
2024-05-09T08:00:11.847Z,47.45
2024-05-09T08:02:42.420Z,47.57
2024-05-09T08:05:19.637Z,47.48
2024-05-09T08:07:47.694Z,47.60
2024-05-09T08:10:21.984Z,47.69
2024-05-09T08:12:55.510Z,46.82
2024-05-09T08:15:26.751Z,47.39
2024-05-09T08:17:54.877Z,47.47
2024-05-09T08:20:31.134Z,47.05
2024-05-09T08:23:02.987Z,47.21
2024-05-09T08:25:34.115Z,47.10
2024-05-09T08:28:06.863Z,47.04
2024-05-09T08:30:38.546Z,46.96
2024-05-09T08:33:09.965Z,46.95
2024-05-09T08:35:41.079Z,46.67
2024-05-09T08:38:09.361Z,46.37
2024-05-09T08:40:40.476Z,45.88
2024-05-09T08:43:12.584Z,46.49
2024-05-09T08:45:45.531Z,46.48
2024-05-09T08:48:15.459Z,46.29
2024-05-09T08:50:47.526Z,46.77
2024-05-09T08:53:15.796Z,46.18
2024-05-09T08:55:47.215Z,46.46
2024-05-09T08:58:18.412Z,46.26
2024-05-09T09:00:49.983Z,46.45
2024-05-09T09:03:18.677Z,46.80
2024-05-09T09:05:51.791Z,46.16
2024-05-09T09:08:19.780Z,46.59
2024-05-09T09:10:53.075Z,46.56
2024-05-09T09:13:23.817Z,46.56
2024-05-09T09:15:57.919Z,46.30
2024-05-09T09:18:26.758Z,46.71
2024-05-09T09:20:58.079Z,46.53
2024-05-09T09:23:28.007Z,46.89
2024-05-09T09:26:01.019Z,46.83
2024-05-09T09:28:36.245Z,46.73
2024-05-09T09:31:07.477Z,46.94
2024-05-09T09:33:36.346Z,46.76
2024-05-09T09:36:09.644Z,46.63
2024-05-09T09:38:39.533Z,46.66
2024-05-09T09:41:11.338Z,46.74
2024-05-09T09:43:41.963Z,46.64
2024-05-09T09:46:13.251Z,46.88
2024-05-09T09:48:41.492Z,46.89
2024-05-09T09:51:12.692Z,46.84
2024-05-09T09:53:40.749Z,46.81
2024-05-09T09:56:11.817Z,46.76
2024-05-09T09:58:42.485Z,46.74
2024-05-09T10:01:13.619Z,46.98
2024-05-09T10:03:41.946Z,46.75
2024-05-09T10:06:13.551Z,46.94
2024-05-09T10:08:41.575Z,46.78
2024-05-09T10:11:12.634Z,46.85
2024-05-09T10:13:43.689Z,47.00
2024-05-09T10:16:14.779Z,47.14
2024-05-09T10:18:43.351Z,46.78
2024-05-09T10:21:18.018Z,46.99
2024-05-09T10:23:56.454Z,46.93
2024-05-09T10:26:32.703Z,46.99
2024-05-09T10:29:03.796Z,46.92
2024-05-09T10:31:34.832Z,46.45
2024-05-09T10:34:03.385Z,46.78
2024-05-09T10:36:34.718Z,46.86
2024-05-09T10:39:02.760Z,46.63
2024-05-09T10:41:33.881Z,46.66
2024-05-09T10:44:04.632Z,46.76
2024-05-09T10:46:35.647Z,46.48
2024-05-09T10:49:06.300Z,45.74
2024-05-09T10:51:38.895Z,46.34
2024-05-09T10:54:07.890Z,46.31
2024-05-09T10:56:38.960Z,46.25
2024-05-09T10:59:09.590Z,46.39
2024-05-09T11:01:40.801Z,46.48
2024-05-09T11:04:09.446Z,46.73
2024-05-09T11:06:40.761Z,46.46
2024-05-09T11:09:08.902Z,46.35
2024-05-09T11:11:39.939Z,46.51
2024-05-09T11:14:17.439Z,46.71
2024-05-09T11:16:48.469Z,46.60
2024-05-09T11:19:18.742Z,46.65
2024-05-09T11:21:53.621Z,46.90
2024-05-09T11:24:21.644Z,46.98
2024-05-09T11:26:52.696Z,46.73
2024-05-09T11:29:23.357Z,47.07
2024-05-09T11:31:54.428Z,47.08
2024-05-09T11:34:22.524Z,47.03
2024-05-09T11:36:53.671Z,46.87
2024-05-09T11:39:21.739Z,46.78
2024-05-09T11:41:52.780Z,46.23
2024-05-09T11:44:23.382Z,46.31
2024-05-09T11:46:54.490Z,46.43
2024-05-09T11:49:25.353Z,46.59
2024-05-09T11:51:57.496Z,46.64
2024-05-09T11:54:25.518Z,46.42
2024-05-09T11:56:56.620Z,46.25
2024-05-09T11:59:27.212Z,46.47
2024-05-09T12:01:58.463Z,46.33
2024-05-09T12:04:26.696Z,46.66
2024-05-09T12:06:57.771Z,46.52
2024-05-09T12:09:25.787Z,46.29
2024-05-09T12:11:56.816Z,46.56
2024-05-09T12:14:27.535Z,46.75
2024-05-09T12:16:59.310Z,46.86
2024-05-09T12:19:27.447Z,46.89
2024-05-09T12:21:58.504Z,46.70
2024-05-09T12:24:29.033Z,46.67
2024-05-09T12:27:00.135Z,46.69
2024-05-09T12:29:30.804Z,46.72
2024-05-09T12:32:01.876Z,46.41
2024-05-09T12:34:30.036Z,46.36
2024-05-09T12:37:01.176Z,46.64
2024-05-09T12:39:29.291Z,46.74
2024-05-09T12:42:00.344Z,46.53
2024-05-09T12:44:30.970Z,46.44
2024-05-09T12:47:02.038Z,46.23
2024-05-09T12:49:30.262Z,45.96
2024-05-09T12:52:01.467Z,45.39
2024-05-09T12:54:29.536Z,45.15
2024-05-09T12:57:00.744Z,44.86
2024-05-09T12:59:31.434Z,45.08
2024-05-09T13:02:02.647Z,45.12
2024-05-09T13:04:30.981Z,45.67
2024-05-09T13:07:07.735Z,45.23
2024-05-09T13:09:36.025Z,45.84
2024-05-09T13:12:07.382Z,45.52
2024-05-09T13:14:38.403Z,45.43
2024-05-09T13:17:09.527Z,45.46
2024-05-09T13:19:37.566Z,45.34
2024-05-09T13:22:08.854Z,45.59
2024-05-09T13:24:36.982Z,45.71
2024-05-09T13:27:08.287Z,45.53
2024-05-09T13:29:41.099Z,45.47
2024-05-09T13:32:13.787Z,45.66
2024-05-09T13:34:41.931Z,45.40
2024-05-09T13:37:13.228Z,45.46
2024-05-09T13:39:41.348Z,45.44
2024-05-09T13:42:12.570Z,45.74
2024-05-09T13:44:43.189Z,45.79
2024-05-09T13:47:14.974Z,46.03
2024-05-09T13:49:43.061Z,45.97
2024-05-09T13:52:14.247Z,45.68
2024-05-09T13:54:42.395Z,45.72
2024-05-09T13:57:13.596Z,45.70
2024-05-09T13:59:44.264Z,45.68
2024-05-09T14:02:15.482Z,46.03
2024-05-09T14:04:43.764Z,45.94
2024-05-09T14:07:15.092Z,45.90
2024-05-09T14:09:43.120Z,46.16
2024-05-09T14:12:14.212Z,46.27
2024-05-09T14:14:44.910Z,46.10
2024-05-09T14:17:16.001Z,46.40
2024-05-09T14:19:44.151Z,46.43
2024-05-09T14:22:15.288Z,46.28
2024-05-09T14:24:43.412Z,46.23
2024-05-09T14:27:14.513Z,46.47
2024-05-09T14:29:45.192Z,46.38
2024-05-09T14:32:16.195Z,46.57
2024-05-09T14:34:44.312Z,46.42
2024-05-09T14:37:15.612Z,46.45
2024-05-09T14:39:43.602Z,46.63
2024-05-09T14:42:15.407Z,46.41
2024-05-09T14:44:46.054Z,46.50
2024-05-09T14:47:17.377Z,46.58
2024-05-09T14:49:45.558Z,46.54
2024-05-09T14:52:16.823Z,46.46
2024-05-09T14:54:45.045Z,46.49
2024-05-09T14:57:16.630Z,46.38
2024-05-09T14:59:47.274Z,46.38
2024-05-09T15:02:19.610Z,46.68
2024-05-09T15:04:47.944Z,46.75
2024-05-09T15:07:19.296Z,46.52
2024-05-09T15:09:47.467Z,46.51
2024-05-09T15:12:18.478Z,46.72
2024-05-09T15:14:49.072Z,46.52
2024-05-09T15:17:20.146Z,46.70
2024-05-09T15:19:48.410Z,46.64
2024-05-09T15:22:19.814Z,46.81
2024-05-09T15:24:48.609Z,46.54
2024-05-09T15:27:20.938Z,46.62
2024-05-09T15:29:51.631Z,46.76
2024-05-09T15:32:24.647Z,46.66
2024-05-09T15:34:52.801Z,46.83
2024-05-09T15:37:24.028Z,46.65
2024-05-09T15:39:52.326Z,46.71
2024-05-09T15:42:24.405Z,47.00
2024-05-09T15:44:55.031Z,46.82
2024-05-09T15:47:27.884Z,46.95
2024-05-09T15:49:55.982Z,46.60
2024-05-09T15:52:27.118Z,46.82
2024-05-09T15:54:55.049Z,46.65
2024-05-09T15:57:26.328Z,46.88
2024-05-09T15:59:57.217Z,46.74
2024-05-09T16:02:28.515Z,46.97
2024-05-09T16:04:56.698Z,46.66
2024-05-09T16:07:27.857Z,46.84
2024-05-09T16:09:55.928Z,46.64
2024-05-09T16:12:26.958Z,46.63
2024-05-09T16:14:57.610Z,46.93
2024-05-09T16:17:28.779Z,46.77
2024-05-09T16:19:56.821Z,46.87
2024-05-09T16:22:28.014Z,47.00
2024-05-09T16:24:56.251Z,46.94
2024-05-09T16:27:27.371Z,46.81
2024-05-09T16:30:04.106Z,47.13
2024-05-09T16:32:40.917Z,46.88
2024-05-09T16:35:08.964Z,46.92
2024-05-09T16:37:40.085Z,47.13
2024-05-09T16:40:21.404Z,46.99
2024-05-09T16:42:56.971Z,47.04
2024-05-09T16:45:27.675Z,47.00
2024-05-09T16:47:59.028Z,47.03
2024-05-09T16:50:32.393Z,46.95
2024-05-09T16:53:06.199Z,46.94
2024-05-09T16:55:35.225Z,47.02
2024-05-09T16:58:06.747Z,47.04
2024-05-09T17:00:42.109Z,46.97
2024-05-09T17:03:16.640Z,46.92
2024-05-09T17:05:47.140Z,47.15
2024-05-09T17:08:19.999Z,46.93
2024-05-09T17:10:49.354Z,46.81
2024-05-09T17:13:21.386Z,47.07
2024-05-09T17:15:54.846Z,46.99
2024-05-09T17:18:23.460Z,47.00
2024-05-09T17:20:54.697Z,47.06
2024-05-09T17:23:23.217Z,47.11
2024-05-09T17:25:53.763Z,47.26
2024-05-09T17:28:22.366Z,46.96
2024-05-09T17:30:55.738Z,47.17
2024-05-09T17:33:24.531Z,47.34
2024-05-09T17:36:01.068Z,47.07
2024-05-09T17:38:29.513Z,47.30
2024-05-09T17:41:00.395Z,47.39
2024-05-09T17:43:29.196Z,47.30
2024-05-09T17:46:02.633Z,47.50
2024-05-09T17:48:31.358Z,47.32
2024-05-09T17:51:02.099Z,47.15
2024-05-09T17:53:30.507Z,47.22
2024-05-09T17:56:01.602Z,47.12
2024-05-09T17:58:30.320Z,47.11
2024-05-09T18:01:05.655Z,47.24
2024-05-09T18:03:34.459Z,47.38
2024-05-09T18:06:05.484Z,47.20
2024-05-09T18:08:34.102Z,47.21
2024-05-09T18:11:04.693Z,47.34
2024-05-09T18:13:33.243Z,47.49
2024-05-09T18:16:06.639Z,47.32
2024-05-09T18:18:35.458Z,47.33
2024-05-09T18:21:06.786Z,47.36
2024-05-09T18:23:35.280Z,47.29
2024-05-09T18:26:06.033Z,47.43
2024-05-09T18:28:34.658Z,47.64
2024-05-09T18:31:08.027Z,47.59
2024-05-09T18:33:36.685Z,47.43
2024-05-09T18:36:07.526Z,47.27
2024-05-09T18:38:35.943Z,47.46
2024-05-09T18:41:06.955Z,47.47
2024-05-09T18:43:42.179Z,47.41
2024-05-09T18:46:18.632Z,47.60
2024-05-09T18:48:47.217Z,47.39
2024-05-09T18:51:17.928Z,47.52
2024-05-09T18:53:46.445Z,47.59
2024-05-09T18:56:17.220Z,47.64
2024-05-09T18:58:46.916Z,47.71
2024-05-09T19:01:20.303Z,47.62
2024-05-09T19:03:49.179Z,47.48
2024-05-09T19:06:24.476Z,47.59
2024-05-09T19:08:53.310Z,47.46
2024-05-09T19:11:23.968Z,47.51
2024-05-09T19:13:52.516Z,47.54
2024-05-09T19:16:25.948Z,47.33
2024-05-09T19:18:55.883Z,47.40
2024-05-09T19:21:28.268Z,47.55
2024-05-09T19:23:57.622Z,47.51
2024-05-09T19:26:28.314Z,47.70
2024-05-09T19:28:56.811Z,47.55
2024-05-09T19:31:35.040Z,47.67
2024-05-09T19:34:05.281Z,47.49
2024-05-09T19:36:37.115Z,47.59
2024-05-09T19:39:05.760Z,47.55
2024-05-09T19:41:36.322Z,47.72
2024-05-09T19:44:04.967Z,47.79
2024-05-09T19:46:39.996Z,47.64
2024-05-09T19:49:08.664Z,47.81
2024-05-09T19:51:39.438Z,47.68
2024-05-09T19:54:07.975Z,47.71
2024-05-09T19:56:44.575Z,47.63
2024-05-09T19:59:13.074Z,47.69
2024-05-09T20:01:46.474Z,47.61
2024-05-09T20:04:15.210Z,47.83
2024-05-09T20:06:48.054Z,47.61
2024-05-09T20:09:16.702Z,47.85
2024-05-09T20:11:47.301Z,47.85
2024-05-09T20:14:17.473Z,47.62
2024-05-09T20:16:50.646Z,47.74
2024-05-09T20:19:19.301Z,47.56
2024-05-09T20:21:50.069Z,47.63
2024-05-09T20:24:18.560Z,47.87
2024-05-09T20:26:50.550Z,47.86
2024-05-09T20:29:19.039Z,47.75
2024-05-09T20:31:52.402Z,47.79
2024-05-09T20:34:21.058Z,47.71
2024-05-09T20:36:51.814Z,47.70
2024-05-09T20:39:24.641Z,47.69
2024-05-09T20:41:55.733Z,47.71
2024-05-09T20:44:24.232Z,47.78
2024-05-09T20:46:57.482Z,47.83
2024-05-09T20:49:26.112Z,47.75
2024-05-09T20:51:57.882Z,47.72
2024-05-09T20:54:26.371Z,47.79
2024-05-09T20:56:57.061Z,47.46
2024-05-09T20:59:25.548Z,47.76
2024-05-09T21:01:58.872Z,47.56
2024-05-09T21:04:30.374Z,47.79
2024-05-09T21:07:01.120Z,47.53
2024-05-09T21:09:29.732Z,47.62
2024-05-09T21:12:00.429Z,47.70
2024-05-09T21:14:28.942Z,47.71
2024-05-09T21:17:02.201Z,47.75
2024-05-09T21:19:30.753Z,47.70
2024-05-09T21:22:01.435Z,47.73
2024-05-09T21:24:29.917Z,47.65
2024-05-09T21:27:00.463Z,47.45
2024-05-09T21:29:28.971Z,47.47
2024-05-09T21:32:02.235Z,47.57
2024-05-09T21:34:30.648Z,47.71
2024-05-09T21:37:01.527Z,47.67
2024-05-09T21:39:30.308Z,47.50
2024-05-09T21:42:02.778Z,47.62
2024-05-09T21:44:31.280Z,47.61
2024-05-09T21:47:04.605Z,47.63
2024-05-09T21:49:33.224Z,47.63
2024-05-09T21:52:04.151Z,47.50
2024-05-09T21:54:32.672Z,47.64
2024-05-09T21:57:03.857Z,47.41
2024-05-09T21:59:32.323Z,47.42
2024-05-09T22:02:06.052Z,47.61
2024-05-09T22:04:34.740Z,47.69
2024-05-09T22:07:06.581Z,47.45
2024-05-09T22:09:35.238Z,47.63
2024-05-09T22:12:05.989Z,47.66
2024-05-09T22:14:34.537Z,47.45
2024-05-09T22:17:07.878Z,47.45
2024-05-09T22:19:36.505Z,47.55
2024-05-09T22:22:07.459Z,47.57
2024-05-09T22:24:36.094Z,47.65
2024-05-09T22:27:07.022Z,47.26
2024-05-09T22:29:35.430Z,47.51
2024-05-09T22:32:09.220Z,47.42
2024-05-09T22:34:37.788Z,47.58
2024-05-09T22:37:08.709Z,47.58
2024-05-09T22:39:37.243Z,47.51
2024-05-09T22:42:08.033Z,47.41
2024-05-09T22:44:36.494Z,47.41
2024-05-09T22:47:10.047Z,47.29
2024-05-09T22:49:38.574Z,47.26
2024-05-09T22:52:09.359Z,47.30
2024-05-09T22:54:37.964Z,47.44
2024-05-09T22:57:08.560Z,47.23
2024-05-09T22:59:37.195Z,47.48
2024-05-09T23:02:10.568Z,47.43
2024-05-09T23:04:39.358Z,47.46
2024-05-09T23:07:10.108Z,47.32
2024-05-09T23:09:38.517Z,47.33
2024-05-09T23:12:09.493Z,47.39
2024-05-09T23:14:37.996Z,47.36
2024-05-09T23:17:11.323Z,47.34
2024-05-09T23:19:39.851Z,47.49
2024-05-09T23:22:10.568Z,47.58
2024-05-09T23:24:39.030Z,47.61
2024-05-09T23:27:09.782Z,47.61
2024-05-09T23:29:38.343Z,47.49
2024-05-09T23:32:12.223Z,47.64
2024-05-09T23:34:40.763Z,47.43
2024-05-09T23:37:12.055Z,47.64
2024-05-09T23:39:40.602Z,47.61
2024-05-09T23:42:11.200Z,47.58
2024-05-09T23:44:39.769Z,47.55
2024-05-09T23:47:13.096Z,47.66
2024-05-09T23:49:41.779Z,47.69
2024-05-09T23:52:12.460Z,47.55
2024-05-09T23:54:42.236Z,47.54
2024-05-09T23:57:12.977Z,47.66
2024-05-09T23:59:41.897Z,47.65
